M I D A S
Marine Information and Data Acquisition System
Tripno 1673 of the Zeeleeuw from 2009-04-08 07:38:57 to 2009-04-08 15:30:15
Back to CruiseResearch ActivitiesStationsMapUnderway DataData graphs

EquipmentUnitsComment
TimeDGPSUTC
LatitudeDGPSDM.mWGS84
LongitudeDGPSDM.mWGS84
HeadingGyrodeg 
SOGDGPSknotsSpeed over ground
COGDGPSdegCourse over ground
DepthEcho soundermeters200 kHz
Missing or incorrect values are displayed as -999
Navigation data collected by the RV Zeeleeuw from 2009-04-08 07:39:33 to 2009-04-08 15:44:35
                                                                                    Next 1000 lines
Time Latitude Longitude Heading SOG COG Depth
2009-04-08 07:39:43 51°13.664 2°55.955 112.9 1.4 295 5
2009-04-08 07:39:48 51°13.665 2°55.951 112.9 1.8 299 5
2009-04-08 07:39:53 51°13.666 2°55.947 112.8 2.1 297 5
2009-04-08 07:39:58 51°13.668 2°55.942 112.5 2.5 298 -999
2009-04-08 07:40:03 51°13.67 2°55.937 112 2.7 297 -999
2009-04-08 07:40:09 51°13.672 2°55.93 111.6 2.9 295 -999
2009-04-08 07:40:14 51°13.674 2°55.924 111.1 3.1 295 -999
2009-04-08 07:40:19 51°13.676 2°55.917 110.6 3.3 295 -999
2009-04-08 07:40:24 51°13.677 2°55.91 110.1 3.4 294 -999
2009-04-08 07:40:29 51°13.679 2°55.903 109.1 3.5 292 -999
2009-04-08 07:40:34 51°13.681 2°55.895 107.4 3.6 290 -999
2009-04-08 07:40:39 51°13.683 2°55.888 105.2 3.7 288 -999
2009-04-08 07:40:44 51°13.684 2°55.88 103.8 3.6 287 -999
2009-04-08 07:40:49 51°13.685 2°55.872 102.4 3.6 285 -999
2009-04-08 07:40:54 51°13.686 2°55.865 101.2 3.6 284 -999
2009-04-08 07:40:59 51°13.687 2°55.857 100.2 3.7 282 -999
2009-04-08 07:41:04 51°13.689 2°55.848 98.9 3.8 281 -999
2009-04-08 07:41:09 51°13.689 2°55.84 97.2 3.7 279 -999
2009-04-08 07:41:14 51°13.69 2°55.832 95.1 3.7 278 -999
2009-04-08 07:41:19 51°13.691 2°55.824 92.9 3.6 276 -999
2009-04-08 07:41:24 51°13.691 2°55.816 90.7 3.5 275 -999
2009-04-08 07:41:29 51°13.692 2°55.809 88.6 3.4 272 -999
2009-04-08 07:41:34 51°13.692 2°55.802 86.3 3.3 271 -999
2009-04-08 07:41:39 51°13.692 2°55.795 84.3 3.1 270 -999
2009-04-08 07:41:44 51°13.691 2°55.788 82.2 2.9 268 -999
2009-04-08 07:41:49 51°13.691 2°55.782 80.5 2.8 267 -999
2009-04-08 07:41:54 51°13.691 2°55.776 78.8 2.7 266 -999
2009-04-08 07:41:59 51°13.691 2°55.771 77.4 2.5 265 10.5
2009-04-08 07:42:03 51°13.69 2°55.766 76.7 2.4 265 10.7
2009-04-08 07:42:08 51°13.69 2°55.761 75.7 2.3 264 11.1
2009-04-08 07:42:13 51°13.69 2°55.757 74.4 2 266 11
2009-04-08 07:42:18 51°13.69 2°55.753 72.8 1.7 265 11.2
2009-04-08 07:42:23 51°13.689 2°55.75 71.3 1.3 270 11.2
2009-04-08 07:42:28 51°13.69 2°55.748 68.2 1 272 11.1
2009-04-08 07:42:33 51°13.69 2°55.746 65 0.8 280 11.1
2009-04-08 07:42:37 51°13.69 2°55.745 61.3 0.5 308 11.2
2009-04-08 07:42:42 51°13.691 2°55.745 57.1 0.5 339 11.4
2009-04-08 07:42:47 51°13.692 2°55.745 52.3 0.7 4 11.6
2009-04-08 07:42:52 51°13.693 2°55.746 48.1 0.9 13 11.6
2009-04-08 07:42:56 51°13.694 2°55.746 41.5 1.1 12 11.6
2009-04-08 07:43:02 51°13.696 2°55.747 36.9 1.3 15 11.7
2009-04-08 07:43:07 51°13.698 2°55.747 31 1.5 12 11.7
2009-04-08 07:43:11 51°13.7 2°55.748 24.9 1.7 7 11.6
2009-04-08 07:43:16 51°13.703 2°55.748 17.7 1.9 4 11.6
2009-04-08 07:43:21 51°13.705 2°55.748 11.6 2 358 11.4
2009-04-08 07:43:26 51°13.708 2°55.748 5.7 2.2 355 11.4
2009-04-08 07:43:31 51°13.711 2°55.747 1 2.3 351 11.3
2009-04-08 07:43:35 51°13.714 2°55.746 355 2.5 346 11
2009-04-08 07:43:40 51°13.718 2°55.744 349.2 2.7 342 10.8
2009-04-08 07:43:45 51°13.721 2°55.741 341.8 3 338 10.8
2009-04-08 07:43:50 51°13.725 2°55.738 336.9 3.3 332 10.7
2009-04-08 07:43:55 51°13.73 2°55.734 331.4 3.7 329 10.6
2009-04-08 07:44:00 51°13.734 2°55.729 329.8 4 327 10.5
2009-04-08 07:44:05 51°13.74 2°55.724 328.9 4.2 328 10.5
2009-04-08 07:44:10 51°13.745 2°55.718 328.2 4.6 325 10.4
2009-04-08 07:44:15 51°13.751 2°55.712 327.7 5 327 10.1
2009-04-08 07:44:20 51°13.757 2°55.705 327.3 5.3 325 9.7
2009-04-08 07:44:25 51°13.763 2°55.698 326.9 5.5 325 9.5
2009-04-08 07:44:30 51°13.77 2°55.691 327.3 5.8 326 9.4
2009-04-08 07:44:35 51°13.777 2°55.684 327.4 6.1 327 9.6
2009-04-08 07:44:39 51°13.783 2°55.678 328.1 6.3 328 9.4
2009-04-08 07:44:45 51°13.792 2°55.669 328.9 6.6 329 9.9
2009-04-08 07:44:51 51°13.802 2°55.659 330.1 6.8 330 9.8
2009-04-08 07:44:55 51°13.809 2°55.653 331.4 7 331 9.8
2009-04-08 07:45:00 51°13.818 2°55.646 332.1 7.2 332 9.8
2009-04-08 07:45:05 51°13.827 2°55.638 332.3 7.4 332 9.8
2009-04-08 07:45:10 51°13.837 2°55.63 332.9 7.6 333 9.7
2009-04-08 07:45:15 51°13.846 2°55.622 333.6 7.8 333 10.2
2009-04-08 07:45:20 51°13.856 2°55.614 334.8 7.9 334 10.2
2009-04-08 07:45:25 51°13.866 2°55.607 335.2 8.1 334 10.1
2009-04-08 07:45:30 51°13.876 2°55.599 335.4 8.3 334 10.2
2009-04-08 07:45:35 51°13.887 2°55.591 336 8.4 334 10.3
2009-04-08 07:45:39 51°13.895 2°55.584 336.1 8.5 334 10.2
2009-04-08 07:45:45 51°13.908 2°55.574 335.8 8.6 334 10.3
2009-04-08 07:45:50 51°13.919 2°55.566 336.7 8.7 335 10.3
2009-04-08 07:45:55 51°13.929 2°55.558 337.1 8.7 335 10.3
2009-04-08 07:45:59 51°13.938 2°55.551 337 8.8 335 10.3
2009-04-08 07:46:05 51°13.952 2°55.542 337.4 8.8 337 10.3
2009-04-08 07:46:10 51°13.963 2°55.534 337.7 8.8 337 10.3
2009-04-08 07:46:15 51°13.974 2°55.526 337.3 8.9 336 10.3
2009-04-08 07:46:20 51°13.985 2°55.518 336.6 8.9 335 10.2
2009-04-08 07:46:25 51°13.996 2°55.51 336 8.9 335 10.2
2009-04-08 07:46:30 51°14.007 2°55.502 335.9 8.8 335 10.1
2009-04-08 07:46:35 51°14.019 2°55.494 336.2 8.8 336 10.1
2009-04-08 07:46:40 51°14.03 2°55.486 336.4 8.9 335 10
2009-04-08 07:46:45 51°14.041 2°55.478 336.1 8.9 335 10
2009-04-08 07:46:51 51°14.055 2°55.468 336.7 8.9 336 10.1
2009-04-08 07:46:55 51°14.064 2°55.462 337.2 8.9 336 10.1
2009-04-08 07:46:59 51°14.072 2°55.455 336.6 9 334 10
2009-04-08 07:47:05 51°14.086 2°55.445 336.6 9 336 10
2009-04-08 07:47:10 51°14.097 2°55.436 336.4 9 334 10
2009-04-08 07:47:15 51°14.108 2°55.427 335.4 9 333 10
2009-04-08 07:47:20 51°14.12 2°55.418 335.2 9 333 10
2009-04-08 07:47:25 51°14.131 2°55.409 334.7 9 332 10
2009-04-08 07:47:30 51°14.142 2°55.399 333.7 9 331 10
2009-04-08 07:47:35 51°14.153 2°55.389 332.2 9 329 -999
2009-04-08 07:47:40 51°14.163 2°55.378 330.8 9 328 10.1
2009-04-08 07:47:45 51°14.174 2°55.367 329.6 9.1 327 -999
2009-04-08 07:47:50 51°14.184 2°55.355 327.9 9.1 325 10.2
2009-04-08 07:47:55 51°14.194 2°55.343 326.6 9.2 324 10.2
2009-04-08 07:48:00 51°14.205 2°55.332 326.1 9.2 324 10.2
2009-04-08 07:48:05 51°14.216 2°55.32 325.2 9.3 322 10.2
2009-04-08 07:48:10 51°14.226 2°55.307 323.8 9.3 321 10.2
2009-04-08 07:48:15 51°14.236 2°55.295 323 9.3 321 10.2
2009-04-08 07:48:20 51°14.245 2°55.281 321.9 9.3 319 10.2
2009-04-08 07:48:25 51°14.255 2°55.267 320.2 9.2 317 10.1
2009-04-08 07:48:30 51°14.263 2°55.253 318.5 9.2 316 10.1
2009-04-08 07:48:35 51°14.273 2°55.238 316.7 9.2 315 10.2
2009-04-08 07:48:40 51°14.281 2°55.223 314.4 9.2 312 10.1
2009-04-08 07:48:45 51°14.289 2°55.208 312.8 9.2 311 10.1
2009-04-08 07:48:50 51°14.298 2°55.192 311.2 9.3 309 10.1
2009-04-08 07:48:55 51°14.306 2°55.176 309.7 9.3 309 10.1
2009-04-08 07:49:00 51°14.314 2°55.159 309 9.5 308 10
2009-04-08 07:49:05 51°14.322 2°55.143 309 9.5 309 10.5
2009-04-08 07:49:10 51°14.33 2°55.126 308.6 9.6 307 10.6
2009-04-08 07:49:15 51°14.338 2°55.109 308 9.7 308 10.4
2009-04-08 07:49:20 51°14.346 2°55.092 308.1 9.8 309 10.4
2009-04-08 07:49:24 51°14.353 2°55.077 308.2 9.9 307 10.3
2009-04-08 07:49:30 51°14.363 2°55.056 308.2 10 308 10
2009-04-08 07:49:35 51°14.372 2°55.039 308.8 10 309 9.8
2009-04-08 07:49:40 51°14.381 2°55.022 310 10.1 310 9.8
2009-04-08 07:49:45 51°14.39 2°55.005 311 10.3 310 9.7
2009-04-08 07:49:50 51°14.4 2°54.988 312.4 10.4 312 9.7
2009-04-08 07:49:55 51°14.41 2°54.971 313.7 10.5 312 9.8
2009-04-08 07:50:00 51°14.42 2°54.954 314.3 10.6 314 9.8
2009-04-08 07:50:05 51°14.431 2°54.938 317.1 10.7 318 9.9
2009-04-08 07:50:10 51°14.442 2°54.923 320.4 10.7 321 10
2009-04-08 07:50:15 51°14.454 2°54.909 323.1 10.8 323 10
2009-04-08 07:50:19 51°14.464 2°54.898 325.9 10.9 326 10
2009-04-08 07:50:25 51°14.48 2°54.883 329.2 10.9 329 9.9
2009-04-08 07:50:30 51°14.493 2°54.87 331.9 11 329 9.7
2009-04-08 07:50:35 51°14.506 2°54.858 333.3 11 329 9.7
2009-04-08 07:50:39 51°14.517 2°54.848 333.8 11.1 329 9.6
2009-04-08 07:50:45 51°14.532 2°54.832 333.4 11.2 327 9.4
2009-04-08 07:50:50 51°14.546 2°54.819 333.2 11.3 329 9.4
2009-04-08 07:50:55 51°14.559 2°54.806 333.5 11.5 328 9.4
2009-04-08 07:51:00 51°14.573 2°54.792 333.4 11.5 328 9.3
2009-04-08 07:51:05 51°14.587 2°54.779 333.5 11.6 328 9.2
2009-04-08 07:51:10 51°14.601 2°54.765 333.6 11.6 329 9.2
2009-04-08 07:51:15 51°14.614 2°54.752 333.7 11.7 328 9.2
2009-04-08 07:51:20 51°14.628 2°54.739 333.7 11.7 329 9.1
2009-04-08 07:51:25 51°14.642 2°54.726 334 11.7 329 9.1
2009-04-08 07:51:30 51°14.656 2°54.712 333.9 11.7 329 9.1
2009-04-08 07:51:35 51°14.67 2°54.699 333.7 11.7 328 9.2
2009-04-08 07:51:39 51°14.681 2°54.688 333.5 11.7 329 9.3
2009-04-08 07:51:45 51°14.698 2°54.672 334 11.8 328 9.2
2009-04-08 07:51:50 51°14.712 2°54.658 333.4 11.8 328 9.2
2009-04-08 07:51:55 51°14.726 2°54.645 333.3 11.8 329 9.2
2009-04-08 07:52:00 51°14.74 2°54.631 333.6 11.8 328 9.3
2009-04-08 07:52:05 51°14.754 2°54.617 333.3 11.8 328 9.2
2009-04-08 07:52:10 51°14.767 2°54.603 332.5 11.9 326 9.1
2009-04-08 07:52:15 51°14.781 2°54.589 332.3 11.8 330 9.1
2009-04-08 07:52:20 51°14.795 2°54.576 333.3 11.7 328 9.1
2009-04-08 07:52:25 51°14.809 2°54.562 333.2 11.7 328 9
2009-04-08 07:52:30 51°14.823 2°54.548 332.7 11.7 328 9
2009-04-08 07:52:35 51°14.836 2°54.535 332.8 11.7 328 9.1
2009-04-08 07:52:40 51°14.85 2°54.521 332.5 11.7 328 9.1
2009-04-08 07:52:45 51°14.864 2°54.508 332.8 11.7 330 8.9
2009-04-08 07:52:50 51°14.878 2°54.494 333.7 11.7 329 8.6
2009-04-08 07:52:55 51°14.892 2°54.481 333.5 11.7 328 8.6
2009-04-08 07:53:00 51°14.905 2°54.467 333.3 11.6 329 8.7
2009-04-08 07:53:05 51°14.919 2°54.454 333.7 11.6 329 8.8
2009-04-08 07:53:10 51°14.933 2°54.441 333.7 11.7 328 8.6
2009-04-08 07:53:15 51°14.947 2°54.427 333.1 11.6 329 8.8
2009-04-08 07:53:20 51°14.961 2°54.414 333.3 11.6 329 9.6
2009-04-08 07:53:25 51°14.975 2°54.401 334.1 11.6 330 9.8
2009-04-08 07:53:30 51°14.988 2°54.388 334.3 11.7 328 10.1
2009-04-08 07:53:35 51°15.002 2°54.374 333.6 11.7 329 10.4
2009-04-08 07:53:39 51°15.013 2°54.364 333.4 11.7 328 10.3
2009-04-08 07:53:45 51°15.03 2°54.347 333.3 11.7 328 10.4
2009-04-08 07:53:50 51°15.044 2°54.334 333.4 11.7 328 10.4
2009-04-08 07:53:55 51°15.057 2°54.32 333 11.7 328 10.4
2009-04-08 07:54:00 51°15.071 2°54.306 332.2 11.6 327 10.4
2009-04-08 07:54:05 51°15.084 2°54.292 332 11.6 327 10.4
2009-04-08 07:54:10 51°15.098 2°54.278 332.1 11.7 328 10.4
2009-04-08 07:54:15 51°15.112 2°54.264 331.5 11.7 326 10.5
2009-04-08 07:54:20 51°15.125 2°54.25 331.3 11.7 328 10.5
2009-04-08 07:54:25 51°15.139 2°54.236 332 11.7 327 10.5
2009-04-08 07:54:30 51°15.153 2°54.222 332.9 11.6 329 10.6
2009-04-08 07:54:35 51°15.166 2°54.209 333.2 11.6 328 10.5
2009-04-08 07:54:39 51°15.177 2°54.198 333.8 11.6 329 10.4
2009-04-08 07:54:45 51°15.194 2°54.182 333.7 11.7 327 10.5
2009-04-08 07:54:50 51°15.208 2°54.169 333.3 11.7 330 10.5
2009-04-08 07:54:55 51°15.222 2°54.155 334 11.7 328 10.5
2009-04-08 07:54:59 51°15.233 2°54.144 333.8 11.7 330 10.5
2009-04-08 07:55:05 51°15.25 2°54.129 334.1 11.7 329 10.5
2009-04-08 07:55:10 51°15.264 2°54.115 333.4 11.7 329 10.5
2009-04-08 07:55:15 51°15.278 2°54.102 333.6 11.7 330 10.4
2009-04-08 07:55:20 51°15.291 2°54.089 333.5 11.7 328 10.4
2009-04-08 07:55:25 51°15.306 2°54.076 333.7 11.7 329 10.3
2009-04-08 07:55:30 51°15.319 2°54.062 333.6 11.7 328 10.6
2009-04-08 07:55:35 51°15.333 2°54.048 333.5 11.8 329 10.6
2009-04-08 07:55:40 51°15.347 2°54.035 333.9 11.8 328 10.6
2009-04-08 07:55:45 51°15.361 2°54.021 333.5 11.8 328 10.7
2009-04-08 07:55:50 51°15.375 2°54.007 333.3 11.8 328 10.9
2009-04-08 07:55:55 51°15.389 2°53.994 333.6 11.8 328 10.8
2009-04-08 07:55:59 51°15.4 2°53.983 333.2 11.7 328 10.7
2009-04-08 07:56:05 51°15.417 2°53.967 332.9 11.7 328 10.8
2009-04-08 07:56:10 51°15.431 2°53.953 333 11.7 328 10.7
2009-04-08 07:56:15 51°15.444 2°53.939 333.5 11.7 328 10.8
2009-04-08 07:56:20 51°15.459 2°53.926 334.1 11.7 329 10.8
2009-04-08 07:56:25 51°15.472 2°53.912 333.8 11.8 328 10.9
2009-04-08 07:56:30 51°15.486 2°53.899 333.4 11.7 329 10.9
2009-04-08 07:56:35 51°15.5 2°53.885 333.4 11.7 329 11
2009-04-08 07:56:40 51°15.514 2°53.872 333.8 11.6 329 11
2009-04-08 07:56:45 51°15.528 2°53.858 333.8 11.6 328 11
2009-04-08 07:56:50 51°15.541 2°53.844 333.5 11.7 329 10.8
2009-04-08 07:56:55 51°15.555 2°53.831 333.8 11.7 328 10.9
2009-04-08 07:56:59 51°15.566 2°53.82 333.2 11.7 328 10.8
2009-04-08 07:57:05 51°15.583 2°53.804 333 11.7 327 10.8
2009-04-08 07:57:10 51°15.596 2°53.79 333.3 11.7 329 10.9
2009-04-08 07:57:15 51°15.61 2°53.776 333.6 11.8 328 10.9
2009-04-08 07:57:19 51°15.621 2°53.765 333.4 11.7 329 10.9
2009-04-08 07:57:25 51°15.638 2°53.749 333.3 11.7 328 10.9
2009-04-08 07:57:30 51°15.652 2°53.735 333.7 11.7 329 10.8
2009-04-08 07:57:35 51°15.666 2°53.722 333.6 11.8 328 10.9
2009-04-08 07:57:40 51°15.679 2°53.708 333.3 11.8 328 10.8
2009-04-08 07:57:45 51°15.693 2°53.694 333.2 11.8 328 10.8
2009-04-08 07:57:50 51°15.707 2°53.68 333.1 11.7 328 10.5
2009-04-08 07:57:55 51°15.721 2°53.667 334 11.7 329 10.6
2009-04-08 07:57:59 51°15.732 2°53.656 333.5 11.7 327 10.7
2009-04-08 07:58:05 51°15.748 2°53.639 332.8 11.7 328 10.7
2009-04-08 07:58:10 51°15.762 2°53.625 333.2 11.8 328 10.8
2009-04-08 07:58:15 51°15.776 2°53.612 333.2 11.8 328 10.8
2009-04-08 07:58:19 51°15.787 2°53.601 333.4 11.7 328 10.7
2009-04-08 07:58:25 51°15.804 2°53.585 334.2 11.7 330 10.7
2009-04-08 07:58:30 51°15.818 2°53.572 334.8 11.7 330 10.8
2009-04-08 07:58:35 51°15.832 2°53.56 335.2 11.7 330 10.7
2009-04-08 07:58:40 51°15.846 2°53.547 335 11.6 329 10.6
2009-04-08 07:58:45 51°15.86 2°53.534 335.6 11.6 331 10.7
2009-04-08 07:58:50 51°15.874 2°53.521 335.7 11.7 329 10.9
2009-04-08 07:58:55 51°15.888 2°53.509 335.6 11.7 331 11.1
2009-04-08 07:59:00 51°15.903 2°53.496 335.4 11.7 330 11
2009-04-08 07:59:05 51°15.917 2°53.483 335.6 11.7 330 11.1
2009-04-08 07:59:10 51°15.93 2°53.47 335.4 11.7 329 10.9
2009-04-08 07:59:15 51°15.945 2°53.457 335.6 11.6 330 11.1
2009-04-08 07:59:19 51°15.956 2°53.446 335.3 11.7 329 11
2009-04-08 07:59:25 51°15.972 2°53.43 335.5 11.7 330 11.1
2009-04-08 07:59:30 51°15.987 2°53.418 335.7 11.7 330 11.1
2009-04-08 07:59:35 51°16.001 2°53.404 335.8 11.7 330 11
2009-04-08 07:59:40 51°16.015 2°53.392 336.1 11.7 331 11
2009-04-08 07:59:45 51°16.029 2°53.378 335.2 11.6 329 11.1
2009-04-08 07:59:50 51°16.043 2°53.365 334.6 11.7 329 11.2
2009-04-08 07:59:55 51°16.056 2°53.352 334.7 11.8 328 11.2
2009-04-08 08:00:00 51°16.071 2°53.339 334.7 11.7 331 11.1
2009-04-08 08:00:05 51°16.085 2°53.326 335.5 11.7 330 11.1
2009-04-08 08:00:10 51°16.098 2°53.312 334.2 11.7 327 11.1
2009-04-08 08:00:15 51°16.112 2°53.299 334 11.7 330 11.2
2009-04-08 08:00:19 51°16.124 2°53.289 335.1 11.8 330 11.2
2009-04-08 08:00:25 51°16.14 2°53.273 334.9 11.8 329 11.3
2009-04-08 08:00:30 51°16.155 2°53.26 336.1 11.7 333 11.3
2009-04-08 08:00:35 51°16.169 2°53.248 337 11.8 330 11.3
2009-04-08 08:00:39 51°16.181 2°53.238 337.5 11.8 333 11.4
2009-04-08 08:00:45 51°16.198 2°53.224 338.6 11.7 333 11.5
2009-04-08 08:00:50 51°16.213 2°53.213 338.3 11.8 333 11.5
2009-04-08 08:00:55 51°16.228 2°53.202 339.1 11.8 334 11.5
2009-04-08 08:01:00 51°16.242 2°53.19 338.7 11.8 332 11.5
2009-04-08 08:01:05 51°16.257 2°53.179 338.6 11.7 335 11.4
2009-04-08 08:01:10 51°16.272 2°53.168 339.1 11.7 334 11.5
2009-04-08 08:01:15 51°16.286 2°53.156 338.7 11.7 334 11.6
2009-04-08 08:01:20 51°16.301 2°53.145 338.7 11.7 334 11.5
2009-04-08 08:01:25 51°16.315 2°53.133 338.2 11.7 334 11.5
2009-04-08 08:01:30 51°16.33 2°53.122 338.9 11.7 335 11.5
2009-04-08 08:01:35 51°16.345 2°53.111 339.7 11.7 336 11.4
2009-04-08 08:01:40 51°16.359 2°53.1 339.7 11.7 334 11.4
2009-04-08 08:01:45 51°16.374 2°53.089 339.7 11.7 336 11.5
2009-04-08 08:01:50 51°16.389 2°53.079 340 11.7 335 11.5
2009-04-08 08:01:55 51°16.404 2°53.068 340.2 11.6 336 11.5
2009-04-08 08:02:00 51°16.419 2°53.057 339.9 11.7 336 11.4
2009-04-08 08:02:05 51°16.434 2°53.047 340 11.7 335 11.4
2009-04-08 08:02:10 51°16.448 2°53.036 339.9 11.7 336 11.4
2009-04-08 08:02:15 51°16.463 2°53.025 340.1 11.7 335 11.4
2009-04-08 08:02:20 51°16.478 2°53.015 339.8 11.7 336 11.4
2009-04-08 08:02:25 51°16.493 2°53.004 339.8 11.7 335 11.4
2009-04-08 08:02:30 51°16.507 2°52.993 339.9 11.6 337 11.3
2009-04-08 08:02:35 51°16.522 2°52.983 340.1 11.7 335 11.3
2009-04-08 08:02:39 51°16.534 2°52.974 340.1 11.7 336 11.3
2009-04-08 08:02:45 51°16.552 2°52.962 340.1 11.7 336 11.3
2009-04-08 08:02:50 51°16.566 2°52.951 340 11.7 334 11.3
2009-04-08 08:02:55 51°16.581 2°52.94 339.6 11.5 336 11
2009-04-08 08:03:00 51°16.596 2°52.93 340.2 11.5 335 11
2009-04-08 08:03:05 51°16.61 2°52.919 339.8 11.6 334 10.9
2009-04-08 08:03:10 51°16.625 2°52.908 338.9 11.6 335 10.9
2009-04-08 08:03:15 51°16.639 2°52.898 339.8 11.5 336 10.9
2009-04-08 08:03:20 51°16.654 2°52.887 340.1 11.6 334 10.9
2009-04-08 08:03:25 51°16.668 2°52.877 340.1 11.5 337 10.8
2009-04-08 08:03:30 51°16.683 2°52.866 340.3 11.5 334 10.7
2009-04-08 08:03:35 51°16.697 2°52.855 339.7 11.5 336 10.7
2009-04-08 08:03:39 51°16.709 2°52.847 340.2 11.5 335 10.6
2009-04-08 08:03:45 51°16.726 2°52.834 340.4 11.5 335 10.4
2009-04-08 08:03:50 51°16.74 2°52.823 339.8 11.5 335 10.1
2009-04-08 08:03:55 51°16.755 2°52.812 339.7 11.5 335 9.9
2009-04-08 08:03:59 51°16.766 2°52.804 340.3 11.4 335 9.7
2009-04-08 08:04:05 51°16.783 2°52.791 339.9 11.3 334 9.2
2009-04-08 08:04:10 51°16.798 2°52.781 339.8 11.3 336 9.1
2009-04-08 08:04:15 51°16.812 2°52.77 339.7 11.3 333 9.2
2009-04-08 08:04:20 51°16.826 2°52.761 340.1 11.2 339 9.1
2009-04-08 08:04:25 51°16.84 2°52.75 341.6 11.3 335 9.1
2009-04-08 08:04:30 51°16.854 2°52.74 340.7 11.2 336 9
2009-04-08 08:04:35 51°16.869 2°52.73 341.2 11.3 337 9
2009-04-08 08:04:39 51°16.88 2°52.722 342 11.3 338 9.1
2009-04-08 08:04:45 51°16.897 2°52.71 341.6 11.3 335 9.2
2009-04-08 08:04:50 51°16.912 2°52.701 342 11.3 337 9.3
2009-04-08 08:04:55 51°16.926 2°52.691 342.5 11.3 338 9.3
2009-04-08 08:04:59 51°16.937 2°52.683 342 11.3 335 9.4
2009-04-08 08:05:05 51°16.955 2°52.672 342.7 11.3 339 9.6
2009-04-08 08:05:10 51°16.969 2°52.662 343 11.3 336 9.6
2009-04-08 08:05:15 51°16.984 2°52.653 342.7 11.3 340 9.6
2009-04-08 08:05:20 51°16.999 2°52.644 343.7 11.4 337 9.8
2009-04-08 08:05:25 51°17.013 2°52.634 342.7 11.3 339 9.6
2009-04-08 08:05:30 51°17.028 2°52.625 343.2 11.3 339 9.5
2009-04-08 08:05:35 51°17.042 2°52.614 342.6 11.3 336 9.4
2009-04-08 08:05:40 51°17.056 2°52.606 343.4 11.2 340 9.5
2009-04-08 08:05:45 51°17.071 2°52.596 342.6 11.4 336 9.3
2009-04-08 08:05:50 51°17.085 2°52.587 342.8 11.3 340 9.3
2009-04-08 08:05:55 51°17.1 2°52.577 342.5 11.2 335 9.2
2009-04-08 08:05:59 51°17.111 2°52.571 342.7 11.1 343 9.2
2009-04-08 08:06:05 51°17.129 2°52.562 346.3 11.2 340 9.1
2009-04-08 08:06:10 51°17.143 2°52.553 346 11.2 340 9.4
2009-04-08 08:06:15 51°17.158 2°52.549 348.3 11 350 9.4
2009-04-08 08:06:20 51°17.173 2°52.543 351.6 11 347 9.5
2009-04-08 08:06:25 51°17.188 2°52.54 354.4 11 355 9.6
2009-04-08 08:06:30 51°17.203 2°52.539 357.1 10.9 357 9.6
2009-04-08 08:06:35 51°17.218 2°52.54 2.6 10.8 6 9.6
2009-04-08 08:06:40 51°17.233 2°52.543 7.6 10.8 6 9.5
2009-04-08 08:06:45 51°17.248 2°52.545 8.6 10.9 6 9.7
2009-04-08 08:06:50 51°17.263 2°52.551 12.3 10.8 14 9.7
2009-04-08 08:06:55 51°17.277 2°52.559 18.1 10.6 22 9.9
2009-04-08 08:06:59 51°17.288 2°52.565 22.2 10.7 19 10
2009-04-08 08:07:05 51°17.304 2°52.576 23.1 10.7 24 9.8
2009-04-08 08:07:10 51°17.317 2°52.589 27.8 10.6 33 9.8
2009-04-08 08:07:15 51°17.329 2°52.603 34.6 10.6 38 9.9
2009-04-08 08:07:19 51°17.337 2°52.616 40.5 10.6 43 9.9
2009-04-08 08:07:25 51°17.35 2°52.635 43.7 10.7 45 9.7
2009-04-08 08:07:30 51°17.36 2°52.653 46.8 10.8 49 9.8
2009-04-08 08:07:35 51°17.37 2°52.671 48.7 10.8 50 9.8
2009-04-08 08:07:40 51°17.379 2°52.69 51.5 10.8 53 9.7
2009-04-08 08:07:45 51°17.388 2°52.71 53.4 10.8 53 9.8
2009-04-08 08:07:50 51°17.397 2°52.728 53.5 10.6 52 9.7
2009-04-08 08:07:55 51°17.404 2°52.75 56.7 11 59 9.6
2009-04-08 08:08:00 51°17.414 2°52.768 55.9 11 50 9.6
2009-04-08 08:08:05 51°17.421 2°52.789 55.8 10.8 62 9.8
2009-04-08 08:08:10 51°17.43 2°52.809 58.2 10.8 54 9.8
2009-04-08 08:08:15 51°17.438 2°52.829 57.6 11 61 9.8
2009-04-08 08:08:19 51°17.444 2°52.846 58.8 11 56 9.8
2009-04-08 08:08:25 51°17.454 2°52.87 58.6 10.7 62 9.7
2009-04-08 08:08:30 51°17.46 2°52.892 60.8 10.9 58 9.6
2009-04-08 08:08:35 51°17.469 2°52.911 59 10.8 59 9.7
2009-04-08 08:08:40 51°17.475 2°52.933 60.3 10.7 64 9.7
2009-04-08 08:08:45 51°17.484 2°52.952 60.5 10.7 56 9.6
2009-04-08 08:08:50 51°17.491 2°52.973 59.6 10.8 62 9.6
2009-04-08 08:08:55 51°17.499 2°52.994 60.3 10.8 56 9.5
2009-04-08 08:09:00 51°17.507 2°53.014 58.8 10.7 59 9.6
2009-04-08 08:09:05 51°17.514 2°53.035 60.3 10.9 56 9.6
2009-04-08 08:09:10 51°17.523 2°53.054 57.6 10.7 55 9.6
2009-04-08 08:09:15 51°17.53 2°53.075 57.9 10.8 60 9.6
2009-04-08 08:09:19 51°17.538 2°53.09 57.8 10.8 52 9.6
2009-04-08 08:09:25 51°17.547 2°53.114 56.6 10.8 59 9.5
2009-04-08 08:09:30 51°17.556 2°53.133 57.3 10.9 52 9.5
2009-04-08 08:09:35 51°17.565 2°53.153 55.4 10.9 57 9.5
2009-04-08 08:09:40 51°17.573 2°53.173 56.2 10.7 56 9.6
2009-04-08 08:09:45 51°17.582 2°53.192 56.7 10.8 56 9.5
2009-04-08 08:09:50 51°17.591 2°53.211 55.4 10.8 52 9.5
2009-04-08 08:09:55 51°17.599 2°53.231 55.2 10.8 60 9.5
2009-04-08 08:10:00 51°17.607 2°53.251 56.9 10.7 55 9.5
2009-04-08 08:10:05 51°17.617 2°53.27 55.3 10.8 56 9.4
2009-04-08 08:10:10 51°17.625 2°53.29 55.9 10.8 52 9.5
2009-04-08 08:10:15 51°17.634 2°53.309 54.6 10.8 57 9.5
2009-04-08 08:10:19 51°17.64 2°53.325 56.4 10.9 53 9.3
2009-04-08 08:10:25 51°17.652 2°53.347 53.9 10.7 52 9.4
2009-04-08 08:10:30 51°17.659 2°53.368 55.7 10.7 59 9.5
2009-04-08 08:10:35 51°17.669 2°53.385 55.2 10.8 46 9.5
2009-04-08 08:10:39 51°17.677 2°53.399 51.5 10.6 52 9.5
2009-04-08 08:10:45 51°17.687 2°53.423 54.2 10.7 53 9.5
2009-04-08 08:10:50 51°17.698 2°53.44 52.1 10.6 47 9.6
2009-04-08 08:10:55 51°17.705 2°53.46 53.9 10.8 60 9.6
2009-04-08 08:11:00 51°17.715 2°53.478 54.6 10.9 47 9.5
2009-04-08 08:11:05 51°17.724 2°53.497 53.1 10.8 55 9.5
2009-04-08 08:11:10 51°17.733 2°53.516 54.7 10.7 51 9.5
2009-04-08 08:11:15 51°17.742 2°53.535 54.2 10.8 52 9.5
2009-04-08 08:11:20 51°17.751 2°53.553 53.2 10.7 52 9.6
2009-04-08 08:11:25 51°17.76 2°53.573 54.5 10.7 55 9.5
2009-04-08 08:11:30 51°17.769 2°53.591 54 10.8 50 9.5
2009-04-08 08:11:35 51°17.778 2°53.61 53.4 10.8 55 9.6
2009-04-08 08:11:39 51°17.785 2°53.626 54.9 10.9 53 9.5
2009-04-08 08:11:45 51°17.797 2°53.648 53.1 10.8 51 9.6
2009-04-08 08:11:50 51°17.805 2°53.668 54.8 10.8 58 9.5
2009-04-08 08:11:55 51°17.815 2°53.686 54.4 10.9 46 9.5
2009-04-08 08:12:00 51°17.824 2°53.705 53 10.8 55 9.5
2009-04-08 08:12:05 51°17.833 2°53.725 55.2 10.8 51 9.5
2009-04-08 08:12:10 51°17.842 2°53.743 54.5 10.8 53 9.5
2009-04-08 08:12:15 51°17.851 2°53.763 54.5 10.9 52 9.5
2009-04-08 08:12:20 51°17.86 2°53.782 54.3 10.9 52 9.5
2009-04-08 08:12:25 51°17.868 2°53.802 55.5 10.9 57 9.5
2009-04-08 08:12:30 51°17.878 2°53.821 55.7 10.9 51 9.6
2009-04-08 08:12:35 51°17.886 2°53.841 55.4 10.8 59 9.5
2009-04-08 08:12:39 51°17.893 2°53.856 57 10.7 51 9.5
2009-04-08 08:12:45 51°17.904 2°53.879 55.2 10.7 56 9.5
2009-04-08 08:12:50 51°17.912 2°53.899 56.2 10.7 53 9.5
2009-04-08 08:12:55 51°17.921 2°53.917 54.5 10.4 56 9.5
2009-04-08 08:12:59 51°17.926 2°53.934 58 10.7 55 9.5
2009-04-08 08:13:05 51°17.939 2°53.955 53.9 10.9 47 9.5
2009-04-08 08:13:10 51°17.947 2°53.975 53.8 10.8 60 9.4
2009-04-08 08:13:15 51°17.956 2°53.994 55.7 10.8 48 9.4
2009-04-08 08:13:20 51°17.965 2°54.013 53.9 10.9 54 9.4
2009-04-08 08:13:25 51°17.975 2°54.032 54.1 10.8 51 9.4
2009-04-08 08:13:30 51°17.983 2°54.051 54.8 11 53 9.5
2009-04-08 08:13:35 51°17.993 2°54.07 53.9 10.9 51 9.4
2009-04-08 08:13:39 51°18 2°54.086 54.5 10.8 56 9.5
2009-04-08 08:13:45 51°18.01 2°54.109 55.9 10.8 52 9.5
2009-04-08 08:13:50 51°18.02 2°54.128 54.3 11 55 9.5
2009-04-08 08:13:55 51°18.028 2°54.148 55.2 11 52 9.5
2009-04-08 08:13:59 51°18.036 2°54.163 55 10.8 54 9.5
2009-04-08 08:14:05 51°18.046 2°54.187 56.4 10.8 53 9.5
2009-04-08 08:14:10 51°18.056 2°54.206 55.4 10.8 52 9.5
2009-04-08 08:14:15 51°18.064 2°54.226 56.6 11 55 9.5
2009-04-08 08:14:20 51°18.073 2°54.245 55.1 10.9 51 9.5
2009-04-08 08:14:25 51°18.081 2°54.265 55.9 10.9 57 9.4
2009-04-08 08:14:30 51°18.091 2°54.284 56.5 11 52 9.5
2009-04-08 08:14:35 51°18.099 2°54.304 55.7 10.8 56 9.5
2009-04-08 08:14:40 51°18.108 2°54.324 56.6 10.8 55 9.5
2009-04-08 08:14:45 51°18.117 2°54.343 56.6 10.8 53 9.6
2009-04-08 08:14:50 51°18.126 2°54.362 55.7 10.8 55 9.5
2009-04-08 08:14:55 51°18.134 2°54.381 56 10.7 54 9.5
2009-04-08 08:14:59 51°18.141 2°54.396 56.8 10.7 57 9.5
2009-04-08 08:15:05 51°18.151 2°54.42 57.3 10.9 52 9.5
2009-04-08 08:15:10 51°18.16 2°54.439 55.9 10.8 54 9.5
2009-04-08 08:15:15 51°18.168 2°54.46 58 10.9 56 9.5
2009-04-08 08:15:20 51°18.178 2°54.479 56.2 11 51 9.5
2009-04-08 08:15:25 51°18.186 2°54.499 55.8 10.9 57 9.6
2009-04-08 08:15:30 51°18.195 2°54.519 57.3 11 55 9.6
2009-04-08 08:15:35 51°18.204 2°54.538 56.2 11 52 9.6
2009-04-08 08:15:40 51°18.213 2°54.558 56 11 56 9.6
2009-04-08 08:15:45 51°18.222 2°54.577 56 11 51 9.7
2009-04-08 08:15:50 51°18.231 2°54.597 55.5 11 57 9.6
2009-04-08 08:15:55 51°18.24 2°54.617 56 11 50 9.6
2009-04-08 08:15:59 51°18.247 2°54.632 55.9 10.8 56 9.6
2009-04-08 08:16:05 51°18.257 2°54.656 57.2 10.8 53 9.6
2009-04-08 08:16:10 51°18.267 2°54.674 53.8 10.8 55 9.6
2009-04-08 08:16:15 51°18.275 2°54.694 55.9 10.8 53 9.6
2009-04-08 08:16:19 51°18.283 2°54.708 55 10.9 51 9.7
2009-04-08 08:16:25 51°18.294 2°54.732 54.6 10.9 52 9.7
2009-04-08 08:16:30 51°18.304 2°54.75 54.5 11 50 9.7
2009-04-08 08:16:35 51°18.313 2°54.77 54.7 11 55 9.7
2009-04-08 08:16:40 51°18.322 2°54.79 55.8 11 53 9.7
2009-04-08 08:16:45 51°18.331 2°54.81 55.8 11.1 54 9.7
2009-04-08 08:16:50 51°18.341 2°54.829 55.7 11 51 9.8
2009-04-08 08:16:55 51°18.35 2°54.848 54.5 10.9 55 9.8
2009-04-08 08:17:00 51°18.359 2°54.867 54.8 10.9 52 9.8
2009-04-08 08:17:05 51°18.368 2°54.886 54.4 10.9 55 9.8
2009-04-08 08:17:10 51°18.377 2°54.906 55.2 11 49 9.8
2009-04-08 08:17:15 51°18.387 2°54.924 53.2 10.8 53 9.8
2009-04-08 08:17:19 51°18.393 2°54.941 55.7 10.7 55 9.9
2009-04-08 08:17:25 51°18.404 2°54.962 54.8 10.8 51 9.9
2009-04-08 08:17:30 51°18.413 2°54.981 54.7 10.8 52 9.9
2009-04-08 08:17:35 51°18.423 2°54.999 53.9 10.6 52 9.9
2009-04-08 08:17:40 51°18.431 2°55.019 54.5 10.5 55 9.9
2009-04-08 08:17:45 51°18.44 2°55.037 55.3 10.6 51 9.9
2009-04-08 08:17:50 51°18.449 2°55.055 53.8 10.6 53 9.9
2009-04-08 08:17:55 51°18.458 2°55.074 54.2 10.6 52 9.9
2009-04-08 08:18:00 51°18.467 2°55.093 54.1 10.7 53 9.9
2009-04-08 08:18:05 51°18.476 2°55.112 54.6 10.7 52 10
2009-04-08 08:18:10 51°18.485 2°55.131 54.5 10.9 56 10.1
2009-04-08 08:18:15 51°18.495 2°55.149 53.4 10.7 45 10
2009-04-08 08:18:19 51°18.502 2°55.164 53.4 10.5 56 9.9
2009-04-08 08:18:25 51°18.512 2°55.187 56.5 10.6 54 10.1
2009-04-08 08:18:30 51°18.522 2°55.205 54.1 10.7 54 10.1
2009-04-08 08:18:35 51°18.529 2°55.225 55.6 10.5 54 10.1
2009-04-08 08:18:40 51°18.538 2°55.244 55.9 10.7 53 10.1
2009-04-08 08:18:45 51°18.547 2°55.263 56 10.8 52 10.3
2009-04-08 08:18:50 51°18.556 2°55.283 54.9 10.7 56 10.3
2009-04-08 08:18:55 51°18.564 2°55.302 56.8 10.9 53 10.1
2009-04-08 08:19:00 51°18.574 2°55.321 55 10.9 50 10.1
2009-04-08 08:19:05 51°18.582 2°55.34 55.2 10.6 59 10.1
2009-04-08 08:19:10 51°18.591 2°55.359 57.3 10.7 49 10
2009-04-08 08:19:15 51°18.6 2°55.377 53.6 10.7 53 10
2009-04-08 08:19:19 51°18.606 2°55.394 56 10.6 57 10.1
2009-04-08 08:19:25 51°18.618 2°55.416 55.7 10.8 50 10.2
2009-04-08 08:19:30 51°18.626 2°55.435 55.2 10.7 57 10.2
2009-04-08 08:19:35 51°18.634 2°55.456 57.8 10.8 54 10.1
2009-04-08 08:19:40 51°18.644 2°55.474 55.2 10.8 49 10
2009-04-08 08:19:45 51°18.651 2°55.494 56.7 10.7 60 10
2009-04-08 08:19:50 51°18.661 2°55.512 56.7 10.7 47 10.2
2009-04-08 08:19:55 51°18.669 2°55.532 55.9 10.8 59 10.1
2009-04-08 08:20:00 51°18.678 2°55.551 56.2 10.7 50 10.2
2009-04-08 08:20:05 51°18.687 2°55.57 55.4 10.6 56 10.1
2009-04-08 08:20:10 51°18.695 2°55.589 56 10.7 53 10.1
2009-04-08 08:20:15 51°18.704 2°55.608 55.4 10.8 54 10
2009-04-08 08:20:19 51°18.711 2°55.624 55.7 10.9 55 9.9
2009-04-08 08:20:25 51°18.722 2°55.647 55 10.9 52 10.1
2009-04-08 08:20:30 51°18.731 2°55.666 55.2 10.7 55 10
2009-04-08 08:20:35 51°18.739 2°55.686 56.5 10.7 54 10.1
2009-04-08 08:20:39 51°18.747 2°55.7 54.4 10.7 50 10.1
2009-04-08 08:20:45 51°18.757 2°55.724 54.5 10.8 55 10.1
2009-04-08 08:20:50 51°18.767 2°55.742 54.5 10.6 51 10
2009-04-08 08:20:55 51°18.775 2°55.761 54.9 10.7 55 10
2009-04-08 08:21:00 51°18.784 2°55.78 54.9 10.8 50 10.1
2009-04-08 08:21:05 51°18.792 2°55.799 55 10.7 55 10.1
2009-04-08 08:21:10 51°18.801 2°55.818 55.4 10.7 55 10.1
2009-04-08 08:21:15 51°18.81 2°55.837 55 10.8 51 10.1
2009-04-08 08:21:19 51°18.817 2°55.853 55.9 10.9 58 10
2009-04-08 08:21:25 51°18.828 2°55.876 56.3 11 49 10
2009-04-08 08:21:30 51°18.837 2°55.896 54.5 10.9 59 10
2009-04-08 08:21:35 51°18.845 2°55.916 56.8 10.8 53 10
2009-04-08 08:21:39 51°18.853 2°55.932 56.7 10.9 55 10
2009-04-08 08:21:45 51°18.863 2°55.955 55.8 11 55 10.2
2009-04-08 08:21:50 51°18.872 2°55.975 56 10.9 55 10.2
2009-04-08 08:21:55 51°18.88 2°55.995 57.1 10.8 58 10.1
2009-04-08 08:22:00 51°18.889 2°56.014 56.4 10.9 52 10.2
2009-04-08 08:22:05 51°18.898 2°56.033 54.5 10.7 55 10.1
2009-04-08 08:22:10 51°18.906 2°56.053 56.2 10.7 57 10
2009-04-08 08:22:15 51°18.915 2°56.072 56 10.6 53 10.1
2009-04-08 08:22:20 51°18.923 2°56.091 56.2 10.5 58 10.1
2009-04-08 08:22:25 51°18.932 2°56.11 57.2 10.7 51 10
2009-04-08 08:22:30 51°18.941 2°56.129 54.3 10.5 55 10.2
2009-04-08 08:22:35 51°18.948 2°56.15 58.2 10.6 60 10.2
2009-04-08 08:22:39 51°18.955 2°56.164 57.4 10.7 50 10
2009-04-08 08:22:45 51°18.966 2°56.187 54.5 10.6 54 10.1
2009-04-08 08:22:50 51°18.974 2°56.206 55.9 10.7 57 10.1
2009-04-08 08:22:55 51°18.984 2°56.225 55.6 10.7 48 10.2
2009-04-08 08:23:00 51°18.993 2°56.244 54.1 10.8 56 10.1
2009-04-08 08:23:05 51°19.001 2°56.264 56 10.9 51 10
2009-04-08 08:23:10 51°19.011 2°56.282 54.6 10.7 55 10.2
2009-04-08 08:23:15 51°19.018 2°56.302 56.1 10.8 55 10.1
2009-04-08 08:23:20 51°19.028 2°56.321 55.2 10.8 50 10.1
2009-04-08 08:23:25 51°19.036 2°56.34 54.7 10.5 59 10.1
2009-04-08 08:23:30 51°19.045 2°56.359 56.9 10.6 50 10.2
2009-04-08 08:23:35 51°19.054 2°56.377 54.6 10.6 55 10.2
2009-04-08 08:23:39 51°19.06 2°56.393 54.8 10.6 53 10.2
2009-04-08 08:23:45 51°19.071 2°56.415 55.2 10.6 54 10.2
2009-04-08 08:23:50 51°19.08 2°56.435 56.1 10.8 55 10.1
2009-04-08 08:23:55 51°19.089 2°56.454 55.5 10.7 52 10.1
2009-04-08 08:23:59 51°19.096 2°56.469 54.3 10.7 57 10
2009-04-08 08:24:05 51°19.105 2°56.493 56.7 10.7 52 10.1
2009-04-08 08:24:10 51°19.116 2°56.51 53 10.6 47 10.1
2009-04-08 08:24:15 51°19.122 2°56.531 56.7 10.6 60 10.1
2009-04-08 08:24:20 51°19.132 2°56.548 56.2 10.5 48 10.1
2009-04-08 08:24:25 51°19.14 2°56.568 55.8 10.6 62 10
2009-04-08 08:24:30 51°19.148 2°56.587 57.8 10.5 49 10.1
2009-04-08 08:24:35 51°19.158 2°56.604 54.5 10.3 56 10.1
2009-04-08 08:24:40 51°19.164 2°56.626 58 10.5 62 10
2009-04-08 08:24:45 51°19.174 2°56.642 54.8 10.4 50 10.1
2009-04-08 08:24:50 51°19.18 2°56.664 56.8 10.6 62 10.1
2009-04-08 08:24:55 51°19.19 2°56.681 57.4 10.6 49 10
2009-04-08 08:24:59 51°19.197 2°56.697 56 10.7 58 10
2009-04-08 08:25:05 51°19.207 2°56.719 56.4 10.6 52 10
2009-04-08 08:25:10 51°19.216 2°56.739 56.1 10.9 56 10
2009-04-08 08:25:15 51°19.225 2°56.758 55.7 10.8 53 10
2009-04-08 08:25:20 51°19.233 2°56.778 56.4 10.8 58 10
2009-04-08 08:25:25 51°19.242 2°56.797 56.3 10.9 51 10.1
2009-04-08 08:25:30 51°19.251 2°56.817 55.3 10.9 54 10
2009-04-08 08:25:35 51°19.26 2°56.835 54.5 10.9 51 10
2009-04-08 08:25:40 51°19.269 2°56.855 53.9 10.8 53 10
2009-04-08 08:25:45 51°19.278 2°56.874 54 10.9 52 10
2009-04-08 08:25:50 51°19.288 2°56.893 54.2 10.9 52 10
2009-04-08 08:25:55 51°19.297 2°56.912 53.9 11 52 10
2009-04-08 08:25:59 51°19.305 2°56.927 53 10.8 50 10.1
2009-04-08 08:26:05 51°19.315 2°56.951 54.6 11.1 57 10
2009-04-08 08:26:10 51°19.326 2°56.968 53.8 11.1 46 9.9
2009-04-08 08:26:15 51°19.334 2°56.988 52.9 10.7 61 9.9
2009-04-08 08:26:20 51°19.342 2°57.007 57.5 10.6 53 10.1
2009-04-08 08:26:25 51°19.353 2°57.023 52.4 10.5 50 10.1
2009-04-08 08:26:30 51°19.36 2°57.044 54.3 10.7 57 10
2009-04-08 08:26:35 51°19.371 2°57.06 53.4 10.7 44 10.1
2009-04-08 08:26:40 51°19.379 2°57.081 53.8 10.7 60 10
2009-04-08 08:26:45 51°19.389 2°57.098 54.5 10.6 42 10.1
2009-04-08 08:26:50 51°19.397 2°57.116 51.6 10.6 58 10
2009-04-08 08:26:55 51°19.406 2°57.135 55.3 10.5 47 10.1
2009-04-08 08:26:59 51°19.415 2°57.147 51.1 10.4 47 10.1
2009-04-08 08:27:05 51°19.424 2°57.172 55.5 10.5 56 10
2009-04-08 08:27:10 51°19.434 2°57.188 53.3 10.6 47 10.1
2009-04-08 08:27:15 51°19.442 2°57.209 54.3 10.8 59 10.1
2009-04-08 08:27:19 51°19.449 2°57.223 55.2 10.7 48 10.1
2009-04-08 08:27:25 51°19.46 2°57.245 53.5 10.5 54 10.1
2009-04-08 08:27:30 51°19.468 2°57.265 56 10.6 53 10.1
2009-04-08 08:27:35 51°19.478 2°57.282 54.1 10.6 50 10.1
2009-04-08 08:27:40 51°19.486 2°57.302 54.5 10.5 57 10.1
2009-04-08 08:27:45 51°19.495 2°57.321 55.8 10.7 49 10
2009-04-08 08:27:50 51°19.504 2°57.339 53.3 10.5 56 10.1
2009-04-08 08:27:55 51°19.511 2°57.36 58.1 10.7 54 10.1
2009-04-08 08:28:00 51°19.521 2°57.377 54.3 10.8 48 10.1
2009-04-08 08:28:05 51°19.53 2°57.396 52.9 10.5 57 10.1
2009-04-08 08:28:10 51°19.538 2°57.416 56.2 10.6 51 10.1
2009-04-08 08:28:15 51°19.549 2°57.432 52.3 10.7 49 10.1
2009-04-08 08:28:19 51°19.555 2°57.449 53.4 10.6 57 10.1
2009-04-08 08:28:25 51°19.564 2°57.472 57.3 10.5 58 10.2
2009-04-08 08:28:30 51°19.573 2°57.491 57.8 10.5 55 10.2
2009-04-08 08:28:35 51°19.579 2°57.512 60.5 10.6 63 10.2
2009-04-08 08:28:40 51°19.587 2°57.532 61.1 10.6 57 10.1
2009-04-08 08:28:45 51°19.593 2°57.553 63.1 10.6 64 10.2
2009-04-08 08:28:50 51°19.601 2°57.573 63.4 10.5 62 10.2
2009-04-08 08:28:55 51°19.606 2°57.596 65.1 10.7 66 10.1
2009-04-08 08:29:00 51°19.614 2°57.616 64.5 10.7 61 10.1
2009-04-08 08:29:05 51°19.619 2°57.638 66.1 10.6 68 10.1
2009-04-08 08:29:10 51°19.625 2°57.66 67 10.9 65 10
2009-04-08 08:29:15 51°19.632 2°57.681 66.1 10.7 63 10.1
2009-04-08 08:29:19 51°19.636 2°57.698 66.3 10.4 69 10.1
2009-04-08 08:29:25 51°19.643 2°57.725 68.3 10.9 64 10
2009-04-08 08:29:30 51°19.65 2°57.746 65.5 10.6 64 10
2009-04-08 08:29:35 51°19.655 2°57.768 68.1 10.4 72 10
2009-04-08 08:29:39 51°19.659 2°57.785 68.4 10.7 64 10
2009-04-08 08:29:45 51°19.668 2°57.811 65.8 10.8 65 10.1
2009-04-08 08:29:50 51°19.673 2°57.833 67.2 10.6 69 10.1
2009-04-08 08:29:55 51°19.679 2°57.854 68.1 10.7 64 10.2
2009-04-08 08:30:00 51°19.686 2°57.876 66.7 10.8 66 10.2
2009-04-08 08:30:05 51°19.692 2°57.897 67.5 10.7 65 10.2
2009-04-08 08:30:10 51°19.698 2°57.919 67.1 10.7 68 10.2
2009-04-08 08:30:15 51°19.704 2°57.941 68.1 10.8 64 10.2
2009-04-08 08:30:19 51°19.709 2°57.958 66.6 10.7 66 10.1
2009-04-08 08:30:25 51°19.716 2°57.985 68.1 10.7 67 10.1
2009-04-08 08:30:30 51°19.722 2°58.006 67.2 10.6 68 10.2
2009-04-08 08:30:35 51°19.727 2°58.028 69 10.8 68 10.1
2009-04-08 08:30:39 51°19.733 2°58.046 68.1 10.9 64 10.2
2009-04-08 08:30:45 51°19.74 2°58.072 67.2 10.6 69 10.1
2009-04-08 08:30:50 51°19.745 2°58.094 69.3 11 68 10
2009-04-08 08:30:55 51°19.752 2°58.116 67.3 10.9 64 10.1
2009-04-08 08:31:00 51°19.756 2°58.139 69.1 10.8 73 10
2009-04-08 08:31:05 51°19.763 2°58.161 69.3 11 61 10.2
2009-04-08 08:31:10 51°19.769 2°58.182 67.1 10.7 70 10.2
2009-04-08 08:31:15 51°19.774 2°58.205 69.1 10.8 68 10.1
2009-04-08 08:31:20 51°19.781 2°58.227 68.2 11.1 63 10
2009-04-08 08:31:25 51°19.787 2°58.249 67.3 10.8 69 10
2009-04-08 08:31:30 51°19.793 2°58.271 68.3 10.9 67 10.1
2009-04-08 08:31:35 51°19.799 2°58.294 67.4 11.3 62 10
2009-04-08 08:31:39 51°19.806 2°58.311 65.2 11 64 10
2009-04-08 08:31:45 51°19.812 2°58.338 67.8 10.8 66 10
2009-04-08 08:31:50 51°19.819 2°58.36 66.4 11.3 64 10
2009-04-08 08:31:55 51°19.826 2°58.383 65.4 11.2 63 10
2009-04-08 08:31:59 51°19.831 2°58.399 65.2 10.7 66 10
2009-04-08 08:32:05 51°19.837 2°58.427 68.5 11 65 10
2009-04-08 08:32:10 51°19.846 2°58.448 65.2 11.4 60 9.9
2009-04-08 08:32:15 51°19.852 2°58.47 64 10.8 67 10.1
2009-04-08 08:32:20 51°19.857 2°58.492 67.1 10.5 69 9.9
2009-04-08 08:32:25 51°19.864 2°58.514 67.2 10.9 62 10.1
2009-04-08 08:32:30 51°19.872 2°58.534 64 10.7 62 10.2
2009-04-08 08:32:35 51°19.876 2°58.556 67.2 10.6 72 10
2009-04-08 08:32:39 51°19.881 2°58.574 67.6 10.8 61 10
2009-04-08 08:32:45 51°19.89 2°58.599 64.7 10.7 64 10
2009-04-08 08:32:50 51°19.895 2°58.621 67.3 10.8 66 10
2009-04-08 08:32:55 51°19.903 2°58.642 65.9 11 62 10
2009-04-08 08:32:59 51°19.907 2°58.66 65.9 11 66 10
2009-04-08 08:33:05 51°19.915 2°58.686 66.4 10.7 65 9.9
2009-04-08 08:33:10 51°19.921 2°58.708 67.4 10.8 66 9.9
2009-04-08 08:33:15 51°19.927 2°58.73 67.5 10.9 66 10
2009-04-08 08:33:20 51°19.933 2°58.753 67.3 10.9 67 9.8
2009-04-08 08:33:25 51°19.94 2°58.774 66 10.9 66 9.8
2009-04-08 08:33:30 51°19.945 2°58.797 67.9 11.1 67 9.8
2009-04-08 08:33:35 51°19.953 2°58.818 66.4 11.1 62 9.8
2009-04-08 08:33:39 51°19.957 2°58.837 66.9 11.2 69 9.8
2009-04-08 08:33:45 51°19.966 2°58.863 66.2 11.2 60 9.8
2009-04-08 08:33:50 51°19.972 2°58.886 65.9 11.1 69 9.7
2009-04-08 08:33:55 51°19.978 2°58.908 67.3 11.1 64 9.8
2009-04-08 08:33:59 51°19.983 2°58.926 67.2 11.1 67 9.8
2009-04-08 08:34:05 51°19.991 2°58.952 66.3 11 63 9.7
2009-04-08 08:34:10 51°19.998 2°58.975 66.2 11.1 66 9.8
2009-04-08 08:34:15 51°20.004 2°58.997 66.8 11 65 9.8
2009-04-08 08:34:20 51°20.01 2°59.019 66.7 10.9 66 9.8
2009-04-08 08:34:25 51°20.016 2°59.041 67.6 10.9 65 9.7
2009-04-08 08:34:30 51°20.023 2°59.063 66.7 11.1 64 9.7
2009-04-08 08:34:35 51°20.029 2°59.085 66.3 10.9 66 9.7
2009-04-08 08:34:40 51°20.035 2°59.108 68.1 11 69 9.6
2009-04-08 08:34:45 51°20.042 2°59.129 66.1 11 60 9.7
2009-04-08 08:34:50 51°20.048 2°59.151 65.1 10.7 72 9.7
2009-04-08 08:34:55 51°20.053 2°59.174 68.7 10.8 64 9.7
2009-04-08 08:34:59 51°20.059 2°59.19 65.6 11 61 9.7
2009-04-08 08:35:05 51°20.067 2°59.217 65.2 10.8 67 9.7
2009-04-08 08:35:10 51°20.073 2°59.238 66.7 10.8 66 9.8
2009-04-08 08:35:15 51°20.08 2°59.26 66.1 11 64 9.8
2009-04-08 08:35:19 51°20.085 2°59.278 66.2 11.2 64 9.8
2009-04-08 08:35:25 51°20.094 2°59.304 64.3 11.1 62 9.8
2009-04-08 08:35:30 51°20.099 2°59.327 65.2 11 69 9.8
2009-04-08 08:35:35 51°20.106 2°59.349 65.7 11.1 59 9.7
2009-04-08 08:35:40 51°20.113 2°59.371 65 11 66 9.8
2009-04-08 08:35:45 51°20.119 2°59.393 66.1 11 63 9.8
2009-04-08 08:35:50 51°20.126 2°59.415 65.9 11.1 65 9.8
2009-04-08 08:35:55 51°20.132 2°59.437 65.8 10.9 66 9.8
2009-04-08 08:36:00 51°20.139 2°59.459 66.4 11 66 9.7
2009-04-08 08:36:05 51°20.146 2°59.481 65.3 11.1 63 9.7
2009-04-08 08:36:10 51°20.151 2°59.504 65.9 11.1 67 9.7
2009-04-08 08:36:15 51°20.159 2°59.526 66.1 11 62 9.8
2009-04-08 08:36:19 51°20.163 2°59.544 66.1 11 68 9.8
2009-04-08 08:36:25 51°20.171 2°59.571 66.9 11.1 63 9.8
2009-04-08 08:36:30 51°20.178 2°59.593 66 11.1 66 9.8
2009-04-08 08:36:35 51°20.184 2°59.615 66.6 11 67 9.8
2009-04-08 08:36:40 51°20.19 2°59.638 66.9 11.2 66 9.8
2009-04-08 08:36:45 51°20.197 2°59.659 64.4 10.9 61 9.8
2009-04-08 08:36:50 51°20.202 2°59.682 66.2 11 70 9.9
2009-04-08 08:36:55 51°20.21 2°59.703 66 11.2 59 10
2009-04-08 08:37:00 51°20.217 2°59.725 63.5 11 63 10
2009-04-08 08:37:05 51°20.222 2°59.748 66.4 11.1 69 9.9
2009-04-08 08:37:10 51°20.229 2°59.769 66.7 11.1 58 9.9
2009-04-08 08:37:15 51°20.236 2°59.791 63.9 11 70 9.9
2009-04-08 08:37:19 51°20.24 2°59.811 68.3 11.2 67 9.9
2009-04-08 08:37:25 51°20.25 2°59.836 65.4 11.2 62 9.9
2009-04-08 08:37:30 51°20.254 2°59.86 66.9 11.3 71 9.9
2009-04-08 08:37:35 51°20.262 2°59.882 66.4 11.4 61 9.9
2009-04-08 08:37:40 51°20.268 2°59.905 65.5 11.2 69 9.9
2009-04-08 08:37:45 51°20.274 2°59.928 67.6 11.2 66 10
2009-04-08 08:37:50 51°20.28 2°59.951 67.4 11.5 66 9.9
2009-04-08 08:37:55 51°20.286 2°59.974 66.6 11.1 67 10
2009-04-08 08:38:00 51°20.291 2°59.997 67.9 11.1 70 10
2009-04-08 08:38:05 51°20.298 3°0.019 67.6 11.3 64 10
2009-04-08 08:38:10 51°20.303 3°0.043 67.3 11.3 72 9.9
2009-04-08 08:38:15 51°20.31 3°0.065 67.9 11.1 63 10
2009-04-08 08:38:19 51°20.315 3°0.083 67.2 10.9 69 10
2009-04-08 08:38:25 51°20.321 3°0.111 68.7 11.1 65 10
2009-04-08 08:38:30 51°20.328 3°0.133 66.2 11.2 66 10
2009-04-08 08:38:35 51°20.333 3°0.156 67.3 10.8 70 10
2009-04-08 08:38:39 51°20.338 3°0.173 68.8 10.9 68 10
2009-04-08 08:38:45 51°20.345 3°0.201 68.2 11.3 65 10
2009-04-08 08:38:50 51°20.351 3°0.223 66.9 11 69 10
2009-04-08 08:38:55 51°20.356 3°0.247 69 11.2 68 9.9
2009-04-08 08:39:00 51°20.363 3°0.269 67.4 11.4 64 10
2009-04-08 08:39:05 51°20.369 3°0.293 67.6 11.4 69 10
2009-04-08 08:39:10 51°20.375 3°0.316 68.1 11.3 67 10
2009-04-08 08:39:15 51°20.381 3°0.339 67.6 11.3 67 10
2009-04-08 08:39:20 51°20.387 3°0.363 67.4 11.4 68 10
2009-04-08 08:39:25 51°20.393 3°0.386 67.6 11.4 66 10
2009-04-08 08:39:30 51°20.4 3°0.409 66.6 11.3 67 10.1
2009-04-08 08:39:35 51°20.405 3°0.432 67.6 11.5 68 10
2009-04-08 08:39:39 51°20.411 3°0.45 67 11.5 63 10
2009-04-08 08:39:45 51°20.418 3°0.478 66.5 11.2 71 10
2009-04-08 08:39:50 51°20.424 3°0.501 68.2 11.3 66 10
2009-04-08 08:39:55 51°20.431 3°0.524 65.5 11.4 67 10
2009-04-08 08:40:00 51°20.436 3°0.548 67.6 11.3 71 10.1
2009-04-08 08:40:05 51°20.444 3°0.57 66.6 11.3 63 10
2009-04-08 08:40:10 51°20.45 3°0.593 65.9 11.3 68 10
2009-04-08 08:40:15 51°20.456 3°0.616 66 11.4 66 10
2009-04-08 08:40:20 51°20.463 3°0.639 66.2 11.5 65 10
2009-04-08 08:40:25 51°20.469 3°0.662 66.2 11.4 68 10.1
2009-04-08 08:40:30 51°20.475 3°0.686 67.6 11.5 65 10.1
2009-04-08 08:40:35 51°20.482 3°0.708 65.9 11.4 65 10.1
2009-04-08 08:40:39 51°20.486 3°0.727 67.3 11.5 71 10
2009-04-08 08:40:45 51°20.494 3°0.755 66.6 11.6 62 10
2009-04-08 08:40:50 51°20.501 3°0.778 65.7 11.4 69 10
2009-04-08 08:40:55 51°20.506 3°0.802 67.6 11.5 66 10
2009-04-08 08:40:59 51°20.512 3°0.821 66.5 11.6 64 10
2009-04-08 08:41:05 51°20.52 3°0.848 66.1 11.3 67 10.1
2009-04-08 08:41:10 51°20.526 3°0.872 67 11.6 68 10
2009-04-08 08:41:15 51°20.532 3°0.895 66.9 11.6 64 10
2009-04-08 08:41:20 51°20.539 3°0.919 66 11.4 67 10.1
2009-04-08 08:41:25 51°20.545 3°0.942 66.1 11.4 66 10.1
2009-04-08 08:41:30 51°20.552 3°0.965 66 11.7 65 10
2009-04-08 08:41:35 51°20.559 3°0.989 65.5 11.8 67 10
2009-04-08 08:41:39 51°20.563 3°1.008 66.1 11.5 67 10.1
2009-04-08 08:41:45 51°20.571 3°1.036 66.7 11.4 68 10.1
2009-04-08 08:41:50 51°20.577 3°1.059 66.5 11.5 64 10.1
2009-04-08 08:41:55 51°20.585 3°1.082 64.7 11.5 65 10.1
2009-04-08 08:41:59 51°20.589 3°1.1 65.9 11.1 68 10.2
2009-04-08 08:42:05 51°20.596 3°1.128 66.8 11.4 66 10.2
2009-04-08 08:42:10 51°20.604 3°1.15 65.4 11.4 63 10
2009-04-08 08:42:15 51°20.609 3°1.174 66.3 11.1 72 10.1
2009-04-08 08:42:20 51°20.615 3°1.196 67.9 11.1 66 10.1
2009-04-08 08:42:25 51°20.622 3°1.22 66.9 11.5 67 10.1
2009-04-08 08:42:30 51°20.628 3°1.242 65.7 11.1 66 10.1
2009-04-08 08:42:35 51°20.633 3°1.265 67.2 11.3 69 10.1
2009-04-08 08:42:40 51°20.64 3°1.288 67.1 11.5 65 10
2009-04-08 08:42:45 51°20.647 3°1.311 65.3 11.3 69 10.1
2009-04-08 08:42:50 51°20.652 3°1.334 67.7 11.3 68 10.2
2009-04-08 08:42:55 51°20.659 3°1.357 66.3 11.5 64 10.1
2009-04-08 08:42:59 51°20.664 3°1.375 65.3 11.3 68 10.2
2009-04-08 08:43:05 51°20.671 3°1.404 68.2 11.5 68 10.1
2009-04-08 08:43:10 51°20.679 3°1.426 65.9 11.5 62 10.1
2009-04-08 08:43:15 51°20.684 3°1.449 64.8 11.1 70 10.1
2009-04-08 08:43:20 51°20.689 3°1.473 67.3 11.2 68 10.1
2009-04-08 08:43:25 51°20.697 3°1.495 65.9 11.5 62 10.2
2009-04-08 08:43:30 51°20.703 3°1.518 63.9 11.2 68 10.1
2009-04-08 08:43:35 51°20.709 3°1.541 65.8 11.2 65 10.3
2009-04-08 08:43:40 51°20.717 3°1.563 64.4 11.5 62 10.2
2009-04-08 08:43:45 51°20.724 3°1.586 64 11.5 67 10.2
2009-04-08 08:43:50 51°20.73 3°1.609 64.8 11.5 64 10.2
2009-04-08 08:43:55 51°20.737 3°1.632 64.8 11.6 65 10.2
2009-04-08 08:43:59 51°20.743 3°1.651 64.6 11.6 63 10.2
2009-04-08 08:44:05 51°20.751 3°1.678 64.3 11.5 66 10.2
2009-04-08 08:44:10 51°20.758 3°1.701 65 11.4 65 10.2
2009-04-08 08:44:15 51°20.765 3°1.724 64.9 11.5 63 10.2
2009-04-08 08:44:19 51°20.771 3°1.742 64.3 11.7 67 10.1
2009-04-08 08:44:25 51°20.779 3°1.77 65.1 11.5 62 10.1
2009-04-08 08:44:30 51°20.785 3°1.793 64.3 11.5 67 10.1
2009-04-08 08:44:35 51°20.792 3°1.817 65.4 11.6 62 10.1
2009-04-08 08:44:40 51°20.8 3°1.839 63.5 11.5 63 10.2
2009-04-08 08:44:45 51°20.805 3°1.863 65.2 11.5 68 10.1
2009-04-08 08:44:50 51°20.813 3°1.886 66 11.7 64 10.1
2009-04-08 08:44:55 51°20.819 3°1.91 65.9 11.7 69 10.2
2009-04-08 08:44:59 51°20.824 3°1.928 67 11.5 66 10.2
2009-04-08 08:45:05 51°20.831 3°1.957 67.8 11.7 68 10.1
2009-04-08 08:45:10 51°20.838 3°1.98 66.5 11.6 63 10.1
2009-04-08 08:45:15 51°20.844 3°2.003 66.7 11.5 70 10
2009-04-08 08:45:19 51°20.849 3°2.022 67.8 11.4 67 10.1
2009-04-08 08:45:25 51°20.857 3°2.05 66.4 11.4 66 10.1
2009-04-08 08:45:30 51°20.863 3°2.073 66.1 11.3 66 10.1
2009-04-08 08:45:35 51°20.869 3°2.096 66 11.4 66 10.1
2009-04-08 08:45:40 51°20.876 3°2.118 65.5 11.4 64 10.1
2009-04-08 08:45:45 51°20.883 3°2.142 64.9 11.4 67 10.2
2009-04-08 08:45:50 51°20.889 3°2.165 66 11.4 66 10.1
2009-04-08 08:45:55 51°20.896 3°2.188 66.3 11.6 65 10.2
2009-04-08 08:46:00 51°20.903 3°2.211 65 11.5 64 10.1
2009-04-08 08:46:05 51°20.91 3°2.234 65.2 11.6 67 10.1
2009-04-08 08:46:10 51°20.916 3°2.258 65.4 11.7 63 10.2
2009-04-08 08:46:15 51°20.923 3°2.28 63.8 11.3 66 10.2
2009-04-08 08:46:19 51°20.928 3°2.299 65.8 11.5 67 10.1
2009-04-08 08:46:25 51°20.937 3°2.326 64.9 11.6 61 10.1
2009-04-08 08:46:30 51°20.944 3°2.349 62.8 11.3 64 10.2
2009-04-08 08:46:35 51°20.949 3°2.373 66.6 11.3 66 10.1
2009-04-08 08:46:40 51°20.957 3°2.395 64.8 11.6 61 10.1
2009-04-08 08:46:45 51°20.963 3°2.418 64 11.2 68 10.3
2009-04-08 08:46:50 51°20.97 3°2.44 66.8 11.4 65 10.2
2009-04-08 08:46:55 51°20.978 3°2.463 63.9 11.6 61 10.2
2009-04-08 08:47:00 51°20.984 3°2.486 63.2 11.3 66 10.3
2009-04-08 08:47:05 51°20.99 3°2.509 66.6 11.4 65 10.3
2009-04-08 08:47:10 51°20.998 3°2.531 64.9 11.7 61 10.3
2009-04-08 08:47:15 51°21.005 3°2.554 64.4 11.4 67 10.3
2009-04-08 08:47:19 51°21.01 3°2.573 66.1 11.4 67 10.3
2009-04-08 08:47:25 51°21.018 3°2.601 66.8 11.8 64 10.4
2009-04-08 08:47:30 51°21.024 3°2.625 65.7 11.6 66 10.4
2009-04-08 08:47:35 51°21.031 3°2.648 66.9 11.5 67 10.4
2009-04-08 08:47:39 51°21.036 3°2.667 67.1 11.7 65 10.4
2009-04-08 08:47:45 51°21.044 3°2.695 65.7 11.5 67 10.4
2009-04-08 08:47:50 51°21.05 3°2.718 67.2 11.5 67 10.4
2009-04-08 08:47:55 51°21.057 3°2.742 66.8 11.7 64 10.4
2009-04-08 08:48:00 51°21.065 3°2.765 65.6 11.7 66 10.5
2009-04-08 08:48:05 51°21.071 3°2.788 65.9 11.5 65 10.5
2009-04-08 08:48:10 51°21.077 3°2.812 67.1 11.6 69 10.4
2009-04-08 08:48:15 51°21.083 3°2.836 67.2 11.7 63 10.5
2009-04-08 08:48:20 51°21.09 3°2.859 66.3 11.7 67 10.5
2009-04-08 08:48:25 51°21.096 3°2.883 67.6 11.6 63 10.5
2009-04-08 08:48:30 51°21.104 3°2.905 65.5 11.5 66 10.5
2009-04-08 08:48:35 51°21.109 3°2.93 67 11.6 66 10.5
2009-04-08 08:48:39 51°21.116 3°2.948 65.1 11.6 63 10.5
2009-04-08 08:48:45 51°21.123 3°2.977 66.2 11.7 68 10.4
2009-04-08 08:48:50 51°21.13 3°2.999 66 11.5 61 10.6
2009-04-08 08:48:55 51°21.136 3°3.023 66.9 11.7 70 10.5
2009-04-08 08:49:00 51°21.143 3°3.047 67.3 11.9 62 10.5
2009-04-08 08:49:05 51°21.15 3°3.07 65.5 11.6 69 10.5
2009-04-08 08:49:10 51°21.155 3°3.095 68.7 11.5 68 10.4
2009-04-08 08:49:15 51°21.162 3°3.117 67.2 11.5 65 10.5
2009-04-08 08:49:20 51°21.167 3°3.141 68 11.4 70 10.5
2009-04-08 08:49:25 51°21.174 3°3.165 68.4 11.6 65 10.5
2009-04-08 08:49:30 51°21.18 3°3.188 66.8 11.4 66 10.5
2009-04-08 08:49:35 51°21.186 3°3.211 68.1 11.2 70 10.5
2009-04-08 08:49:39 51°21.191 3°3.229 68.8 11.5 65 10.5
2009-04-08 08:49:45 51°21.199 3°3.257 67.3 11.6 67 10.5
2009-04-08 08:49:50 51°21.206 3°3.28 67.6 11.3 68 10.6
2009-04-08 08:49:55 51°21.212 3°3.303 69 11.3 69 10.6
2009-04-08 08:50:00 51°21.218 3°3.327 68.3 11.4 66 10.5
2009-04-08 08:50:05 51°21.224 3°3.351 68 11.7 67 10.6
2009-04-08 08:50:10 51°21.23 3°3.374 67.5 11.5 67 10.5
2009-04-08 08:50:15 51°21.234 3°3.399 69.4 11.5 70 10.5
2009-04-08 08:50:20 51°21.24 3°3.423 69.7 11.6 68 10.6
2009-04-08 08:50:25 51°21.246 3°3.447 69.7 11.6 70 10.6
2009-04-08 08:50:30 51°21.253 3°3.47 69.7 11.5 68 10.6
2009-04-08 08:50:35 51°21.259 3°3.494 70.1 11.5 70 10.6
2009-04-08 08:50:39 51°21.264 3°3.512 69.8 11.5 68 10.7
2009-04-08 08:50:45 51°21.271 3°3.54 68.8 11.6 67 10.7
2009-04-08 08:50:51 51°21.279 3°3.569 68.2 11.6 68 10.7
2009-04-08 08:50:55 51°21.283 3°3.588 68.7 11.6 69 10.7
2009-04-08 08:50:59 51°21.288 3°3.608 68.9 11.7 66 10.7
2009-04-08 08:51:05 51°21.295 3°3.636 67.6 11.7 67 10.7
2009-04-08 08:51:10 51°21.301 3°3.66 68.1 11.6 67 10.7
2009-04-08 08:51:15 51°21.308 3°3.684 68.1 11.5 68 10.7
2009-04-08 08:51:20 51°21.314 3°3.707 68.1 11.5 66 10.7
2009-04-08 08:51:25 51°21.321 3°3.73 66.9 11.5 66 10.9
2009-04-08 08:51:30 51°21.327 3°3.753 66.8 11.5 67 10.8
2009-04-08 08:51:35 51°21.334 3°3.777 67.1 11.5 66 10.9
2009-04-08 08:51:40 51°21.34 3°3.801 66.9 11.5 67 10.9
2009-04-08 08:51:45 51°21.346 3°3.824 67.6 11.5 66 10.9
2009-04-08 08:51:50 51°21.352 3°3.848 67.7 11.3 68 11
2009-04-08 08:51:55 51°21.357 3°3.871 69.3 11.3 70 10.9
2009-04-08 08:51:59 51°21.361 3°3.891 69.8 11.7 68 10.9
2009-04-08 08:52:05 51°21.369 3°3.919 67.6 11.6 68 10.9
2009-04-08 08:52:10 51°21.373 3°3.944 70.6 11.5 72 11
2009-04-08 08:52:15 51°21.381 3°3.967 69.8 11.8 66 11
2009-04-08 08:52:20 51°21.386 3°3.992 69.1 11.8 71 11
2009-04-08 08:52:25 51°21.392 3°4.015 69.9 11.5 68 11.1
2009-04-08 08:52:30 51°21.397 3°4.04 71.5 11.7 72 11.1
2009-04-08 08:52:35 51°21.403 3°4.064 71.2 11.7 69 11.1
2009-04-08 08:52:40 51°21.407 3°4.089 72.2 11.5 74 11.1
2009-04-08 08:52:45 51°21.413 3°4.113 72.1 11.7 68 11.1
2009-04-08 08:52:50 51°21.417 3°4.138 71.5 11.7 73 11.1
2009-04-08 08:52:55 51°21.423 3°4.162 72.4 11.7 70 11.1
2009-04-08 08:53:00 51°21.428 3°4.186 71.6 11.6 70 11.2
2009-04-08 08:53:05 51°21.434 3°4.21 72.2 11.7 71 11.2
2009-04-08 08:53:10 51°21.44 3°4.234 71.5 11.8 69 11.2
2009-04-08 08:53:15 51°21.445 3°4.259 70.9 11.6 72 11.2
2009-04-08 08:53:20 51°21.451 3°4.283 72.2 11.8 71 11.1
2009-04-08 08:53:25 51°21.456 3°4.308 71.2 11.7 70 11.2
2009-04-08 08:53:30 51°21.461 3°4.332 71.7 11.6 73 11.2
2009-04-08 08:53:35 51°21.466 3°4.357 72.6 11.8 70 11.2
2009-04-08 08:53:40 51°21.472 3°4.382 71.1 11.7 69 11.2
2009-04-08 08:53:45 51°21.477 3°4.406 72.2 11.5 74 11.2
2009-04-08 08:53:50 51°21.482 3°4.43 72.8 11.8 70 11.2
2009-04-08 08:53:55 51°21.488 3°4.455 70.7 11.9 68 11.2
2009-04-08 08:54:00 51°21.494 3°4.479 70.3 11.6 70 11.2
2009-04-08 08:54:05 51°21.499 3°4.503 71.5 11.6 70 11.2
2009-04-08 08:54:10 51°21.505 3°4.527 70.2 11.8 68 11.2
2009-04-08 08:54:15 51°21.511 3°4.552 69.8 11.7 70 11.2
2009-04-08 08:54:20 51°21.516 3°4.576 70.6 11.7 70 11.2
2009-04-08 08:54:25 51°21.522 3°4.601 70.5 11.7 69 11.2
2009-04-08 08:54:30 51°21.528 3°4.626 69.4 11.7 68 11.2
2009-04-08 08:54:35 51°21.534 3°4.651 69.8 12 70 11.2
2009-04-08 08:54:39 51°21.539 3°4.671 70.3 12 69 11.2
2009-04-08 08:54:45 51°21.545 3°4.7 71.2 11.7 73 11.2
2009-04-08 08:54:50 51°21.55 3°4.725 71.9 11.9 68 11.2
2009-04-08 08:54:55 51°21.556 3°4.75 71.1 12 72 11.2
2009-04-08 08:55:00 51°21.561 3°4.774 71.4 11.9 71 11.2
2009-04-08 08:55:05 51°21.567 3°4.799 71.3 11.7 72 11.3
2009-04-08 08:55:10 51°21.572 3°4.823 71.9 11.8 70 11.2
2009-04-08 08:55:15 51°21.579 3°4.847 70 11.8 69 11.2
2009-04-08 08:55:20 51°21.583 3°4.872 71.1 11.8 73 11.2
2009-04-08 08:55:25 51°21.59 3°4.896 70 11.6 67 11.3
2009-04-08 08:55:30 51°21.594 3°4.92 70.7 11.7 74 11.2
2009-04-08 08:55:35 51°21.6 3°4.945 71.4 12 67 11.2
2009-04-08 08:55:40 51°21.606 3°4.969 70.2 11.9 72 11.2
2009-04-08 08:55:45 51°21.611 3°4.994 71.2 11.6 70 11.4
2009-04-08 08:55:50 51°21.617 3°5.018 70.9 11.6 71 11.3
2009-04-08 08:55:55 51°21.622 3°5.043 71.5 11.8 70 11.2
2009-04-08 08:56:00 51°21.629 3°5.067 69.8 11.9 67 11.2
2009-04-08 08:56:05 51°21.633 3°5.092 71.4 11.8 73 11.3
2009-04-08 08:56:10 51°21.639 3°5.116 71.2 11.8 70 11.4
2009-04-08 08:56:15 51°21.644 3°5.141 71.2 11.8 71 11.4
2009-04-08 08:56:20 51°21.649 3°5.166 71.5 11.9 71 11.4
2009-04-08 08:56:25 51°21.655 3°5.19 70.9 12 68 11.4
2009-04-08 08:56:30 51°21.661 3°5.215 70.5 11.8 72 11.4
2009-04-08 08:56:35 51°21.666 3°5.24 71.3 11.7 70 11.4
2009-04-08 08:56:40 51°21.672 3°5.264 71.1 11.9 71 11.4
2009-04-08 08:56:45 51°21.677 3°5.289 71 12 67 11.4
2009-04-08 08:56:50 51°21.684 3°5.313 69.3 11.7 70 11.4
2009-04-08 08:56:55 51°21.689 3°5.338 70.7 11.8 70 11.3
2009-04-08 08:57:00 51°21.695 3°5.363 70 12 68 11.3
2009-04-08 08:57:05 51°21.701 3°5.388 69.6 11.9 68 11.4
2009-04-08 08:57:10 51°21.707 3°5.412 69.8 11.7 71 11.3
2009-04-08 08:57:15 51°21.712 3°5.437 70.8 11.9 69 11.4
2009-04-08 08:57:20 51°21.719 3°5.46 69 11.7 64 11.3
2009-04-08 08:57:25 51°21.724 3°5.484 69.1 11.6 74 11.3
2009-04-08 08:57:30 51°21.73 3°5.508 70.7 11.8 66 11.3
2009-04-08 08:57:35 51°21.736 3°5.533 68.9 11.6 73 11.3
2009-04-08 08:57:40 51°21.741 3°5.556 70.5 11.4 70 11.4
2009-04-08 08:57:45 51°21.747 3°5.581 71 11.8 73 11.3
2009-04-08 08:57:50 51°21.753 3°5.606 71.2 12.1 67 11.3
2009-04-08 08:57:55 51°21.758 3°5.63 69.7 11.5 74 11.3
2009-04-08 08:57:59 51°21.761 3°5.65 71.6 11.6 70 11.3
2009-04-08 08:58:05 51°21.769 3°5.679 70.7 12 68 11.3
2009-04-08 08:58:10 51°21.774 3°5.704 70.5 11.8 72 11.4
2009-04-08 08:58:15 51°21.78 3°5.728 70.9 11.7 70 11.4
2009-04-08 08:58:20 51°21.785 3°5.752 70.5 11.8 71 11.4
2009-04-08 08:58:25 51°21.791 3°5.777 69.8 11.8 68 11.3
2009-04-08 08:58:30 51°21.797 3°5.801 69.1 11.7 70 11.3
2009-04-08 08:58:35 51°21.803 3°5.825 70 11.8 68 11.4
2009-04-08 08:58:40 51°21.809 3°5.85 68.9 11.9 68 11.3
2009-04-08 08:58:45 51°21.814 3°5.875 69.4 11.8 69 11.4
2009-04-08 08:58:50 51°21.821 3°5.898 69 11.6 68 11.4
2009-04-08 08:58:55 51°21.826 3°5.923 69.6 11.8 70 11.4
2009-04-08 08:59:00 51°21.833 3°5.946 68.4 11.7 64 11.4
2009-04-08 08:59:05 51°21.838 3°5.971 69.3 11.9 71 11.4
2009-04-08 08:59:10 51°21.845 3°5.995 68.5 12 66 11.5
2009-04-08 08:59:15 51°21.85 3°6.02 68.6 11.8 72 11.5
2009-04-08 08:59:20 51°21.856 3°6.045 70.5 12.1 70 11.5
2009-04-08 08:59:25 51°21.863 3°6.07 69 12.2 65 11.5
2009-04-08 08:59:30 51°21.868 3°6.094 68.7 11.7 75 11.6
2009-04-08 08:59:35 51°21.873 3°6.119 72 11.8 67 11.6
2009-04-08 08:59:40 51°21.88 3°6.143 68.8 11.9 69 11.6
2009-04-08 08:59:45 51°21.885 3°6.168 70.1 11.8 70 11.6
2009-04-08 08:59:50 51°21.892 3°6.191 69.5 11.7 69 11.6
2009-04-08 08:59:55 51°21.896 3°6.217 70.9 11.9 71 11.6
2009-04-08 09:00:00 51°21.903 3°6.241 70 11.9 68 11.6
2009-04-08 09:00:05 51°21.908 3°6.266 70.6 12 71 11.7
2009-04-08 09:00:10 51°21.914 3°6.291 70.2 12 69 11.7
2009-04-08 09:00:15 51°21.919 3°6.317 70.6 12 73 11.7
2009-04-08 09:00:20 51°21.925 3°6.341 70.5 11.9 67 11.7
2009-04-08 09:00:25 51°21.931 3°6.366 69.8 11.9 72 11.7
2009-04-08 09:00:30 51°21.937 3°6.39 70.3 12 67 11.8
2009-04-08 09:00:35 51°21.943 3°6.415 68.8 11.9 70 11.9
2009-04-08 09:00:40 51°21.948 3°6.439 69.8 11.8 69 11.9
2009-04-08 09:00:45 51°21.955 3°6.464 69.3 11.8 70 11.9
2009-04-08 09:00:50 51°21.96 3°6.489 70.4 11.9 70 11.9
2009-04-08 09:00:55 51°21.966 3°6.513 69.8 11.9 68 11.9
2009-04-08 09:01:00 51°21.971 3°6.539 69.8 11.9 72 11.9
2009-04-08 09:01:05 51°21.977 3°6.563 71 12.1 68 11.9
2009-04-08 09:01:10 51°21.984 3°6.588 69 12.1 69 12
2009-04-08 09:01:15 51°21.988 3°6.614 70.4 12 72 12
2009-04-08 09:01:20 51°21.994 3°6.638 71.2 11.9 70 12
2009-04-08 09:01:25 51°22 3°6.663 70.4 12 69 12
2009-04-08 09:01:30 51°22.005 3°6.688 70.4 12.1 71 12
2009-04-08 09:01:35 51°22.011 3°6.713 69.8 11.9 69 12
2009-04-08 09:01:40 51°22.017 3°6.738 69.7 11.7 72 12
2009-04-08 09:01:45 51°22.022 3°6.763 71.2 11.9 69 12
2009-04-08 09:01:50 51°22.029 3°6.786 69 11.6 66 12.1
2009-04-08 09:01:55 51°22.033 3°6.812 70.5 11.9 76 12
2009-04-08 09:01:59 51°22.038 3°6.832 71.6 12.1 65 12
2009-04-08 09:02:05 51°22.045 3°6.861 68.5 11.7 72 12.1
2009-04-08 09:02:10 51°22.049 3°6.886 71.7 11.8 72 12.1
2009-04-08 09:02:15 51°22.056 3°6.911 71.2 12.2 67 12.1
2009-04-08 09:02:20 51°22.061 3°6.936 69.8 11.9 73 12.1
2009-04-08 09:02:25 51°22.067 3°6.96 70.8 11.8 70 12.1
2009-04-08 09:02:30 51°22.072 3°6.986 71.2 12.1 71 12.2
2009-04-08 09:02:35 51°22.079 3°7.011 69.9 12.2 68 12.2
2009-04-08 09:02:40 51°22.084 3°7.036 70.1 12 72 12.2
2009-04-08 09:02:45 51°22.089 3°7.061 71.2 12 71 12.3
2009-04-08 09:02:50 51°22.095 3°7.086 71.2 12.1 70 12.3